sensor_id;sensor_type;location;lat;lon;timestamp;temperature;humidity
9311;DHT22;4694;52.464;13.480;2022-07-25T00:01:11;18.90;99.90
9311;DHT22;4694;52.464;13.480;2022-07-25T00:03:40;18.90;99.90
9311;DHT22;4694;52.464;13.480;2022-07-25T00:06:07;18.90;99.90
9311;DHT22;4694;52.464;13.480;2022-07-25T00:08:34;18.80;99.90
9311;DHT22;4694;52.464;13.480;2022-07-25T00:11:02;18.90;99.90
9311;DHT22;4694;52.464;13.480;2022-07-25T00:13:30;18.90;99.90
9311;DHT22;4694;52.464;13.480;2022-07-25T00:15:58;18.90;99.90
9311;DHT22;4694;52.464;13.480;2022-07-25T00:18:25;18.90;99.90
9311;DHT22;4694;52.464;13.480;2022-07-25T00:20:52;18.90;99.90
9311;DHT22;4694;52.464;13.480;2022-07-25T00:23:19;18.90;99.90
9311;DHT22;4694;52.464;13.480;2022-07-25T00:25:45;18.90;99.90
9311;DHT22;4694;52.464;13.480;2022-07-25T00:28:13;18.80;99.90
9311;DHT22;4694;52.464;13.480;2022-07-25T00:30:40;18.80;99.90
9311;DHT22;4694;52.464;13.480;2022-07-25T00:33:06;18.80;99.90
9311;DHT22;4694;52.464;13.480;2022-07-25T00:35:33;18.80;99.90
9311;DHT22;4694;52.464;13.480;2022-07-25T00:38:03;18.80;99.90
9311;DHT22;4694;52.464;13.480;2022-07-25T00:40:30;18.80;99.90
9311;DHT22;4694;52.464;13.480;2022-07-25T00:42:57;18.80;99.90
9311;DHT22;4694;52.464;13.480;2022-07-25T00:45:25;18.80;99.90
9311;DHT22;4694;52.464;13.480;2022-07-25T00:47:52;18.80;99.90
9311;DHT22;4694;52.464;13.480;2022-07-25T00:50:19;18.80;99.90
9311;DHT22;4694;52.464;13.480;2022-07-25T00:52:45;18.80;99.90
9311;DHT22;4694;52.464;13.480;2022-07-25T00:55:12;18.70;99.90
9311;DHT22;4694;52.464;13.480;2022-07-25T00:57:39;18.80;99.90
9311;DHT22;4694;52.464;13.480;2022-07-25T01:00:10;18.70;99.90
9311;DHT22;4694;52.464;13.480;2022-07-25T01:02:38;18.80;99.90
9311;DHT22;4694;52.464;13.480;2022-07-25T01:05:06;18.70;99.90
9311;DHT22;4694;52.464;13.480;2022-07-25T01:07:33;18.70;99.90
9311;DHT22;4694;52.464;13.480;2022-07-25T01:10:00;18.70;99.90
9311;DHT22;4694;52.464;13.480;2022-07-25T01:12:28;18.60;99.90
9311;DHT22;4694;52.464;13.480;2022-07-25T01:14:55;18.70;99.90
9311;DHT22;4694;52.464;13.480;2022-07-25T01:17:22;18.70;99.90
9311;DHT22;4694;52.464;13.480;2022-07-25T01:19:50;18.60;99.90
9311;DHT22;4694;52.464;13.480;2022-07-25T01:22:19;18.70;99.90
9311;DHT22;4694;52.464;13.480;2022-07-25T01:24:46;18.60;99.90
9311;DHT22;4694;52.464;13.480;2022-07-25T01:27:13;18.70;99.90
9311;DHT22;4694;52.464;13.480;2022-07-25T01:29:40;18.70;99.90
9311;DHT22;4694;52.464;13.480;2022-07-25T01:32:07;18.60;99.90
9311;DHT22;4694;52.464;13.480;2022-07-25T01:34:34;18.70;99.90
9311;DHT22;4694;52.464;13.480;2022-07-25T01:37:02;18.60;99.90
9311;DHT22;4694;52.464;13.480;2022-07-25T01:39:30;18.60;99.90
9311;DHT22;4694;52.464;13.480;2022-07-25T01:41:57;18.60;99.90
9311;DHT22;4694;52.464;13.480;2022-07-25T01:44:24;18.60;99.90
9311;DHT22;4694;52.464;13.480;2022-07-25T01:46:51;18.50;99.90
9311;DHT22;4694;52.464;13.480;2022-07-25T01:49:18;18.50;99.90
9311;DHT22;4694;52.464;13.480;2022-07-25T01:51:44;18.80;99.90
9311;DHT22;4694;52.464;13.480;2022-07-25T01:54:11;18.50;99.90
9311;DHT22;4694;52.464;13.480;2022-07-25T01:56:43;18.50;99.90
9311;DHT22;4694;52.464;13.480;2022-07-25T01:59:10;18.40;99.90
9311;DHT22;4694;52.464;13.480;2022-07-25T02:01:37;18.40;99.90
9311;DHT22;4694;52.464;13.480;2022-07-25T02:04:03;18.30;99.90
9311;DHT22;4694;52.464;13.480;2022-07-25T02:06:30;18.30;99.90
9311;DHT22;4694;52.464;13.480;2022-07-25T02:08:59;18.30;99.90
9311;DHT22;4694;52.464;13.480;2022-07-25T02:11:26;18.40;99.90
9311;DHT22;4694;52.464;13.480;2022-07-25T02:13:54;18.30;99.90
9311;DHT22;4694;52.464;13.480;2022-07-25T02:16:20;18.20;99.90
9311;DHT22;4694;52.464;13.480;2022-07-25T02:18:47;18.20;99.90
9311;DHT22;4694;52.464;13.480;2022-07-25T02:21:14;18.20;99.90
9311;DHT22;4694;52.464;13.480;2022-07-25T02:23:42;18.00;99.90
9311;DHT22;4694;52.464;13.480;2022-07-25T02:26:09;18.00;99.90
9311;DHT22;4694;52.464;13.480;2022-07-25T02:28:35;18.00;99.90
9311;DHT22;4694;52.464;13.480;2022-07-25T02:31:03;18.00;99.90
9311;DHT22;4694;52.464;13.480;2022-07-25T02:33:30;17.90;99.90
9311;DHT22;4694;52.464;13.480;2022-07-25T02:35:56;17.90;99.90
9311;DHT22;4694;52.464;13.480;2022-07-25T02:38:23;17.90;99.90
9311;DHT22;4694;52.464;13.480;2022-07-25T02:40:51;17.90;99.90
9311;DHT22;4694;52.464;13.480;2022-07-25T02:43:18;17.80;99.90
9311;DHT22;4694;52.464;13.480;2022-07-25T02:45:45;17.80;99.90
9311;DHT22;4694;52.464;13.480;2022-07-25T02:48:13;17.80;99.90
9311;DHT22;4694;52.464;13.480;2022-07-25T02:50:41;17.80;99.90
9311;DHT22;4694;52.464;13.480;2022-07-25T02:53:08;17.80;99.90
9311;DHT22;4694;52.464;13.480;2022-07-25T02:55:35;17.80;99.90
9311;DHT22;4694;52.464;13.480;2022-07-25T02:58:01;17.80;99.90
9311;DHT22;4694;52.464;13.480;2022-07-25T03:00:29;17.80;99.90
9311;DHT22;4694;52.464;13.480;2022-07-25T03:02:56;17.80;99.90
9311;DHT22;4694;52.464;13.480;2022-07-25T03:05:24;17.70;99.90
9311;DHT22;4694;52.464;13.480;2022-07-25T03:07:50;17.80;99.90
9311;DHT22;4694;52.464;13.480;2022-07-25T03:10:17;17.80;99.90
9311;DHT22;4694;52.464;13.480;2022-07-25T03:12:44;17.80;99.90
9311;DHT22;4694;52.464;13.480;2022-07-25T03:15:11;17.80;99.90
9311;DHT22;4694;52.464;13.480;2022-07-25T03:17:38;17.70;99.90
9311;DHT22;4694;52.464;13.480;2022-07-25T03:20:06;17.70;99.90
9311;DHT22;4694;52.464;13.480;2022-07-25T03:22:35;17.70;99.90
9311;DHT22;4694;52.464;13.480;2022-07-25T03:25:03;17.70;99.90
9311;DHT22;4694;52.464;13.480;2022-07-25T03:27:30;17.70;99.90
9311;DHT22;4694;52.464;13.480;2022-07-25T03:29:58;17.70;99.90
9311;DHT22;4694;52.464;13.480;2022-07-25T03:32:25;17.70;99.90
9311;DHT22;4694;52.464;13.480;2022-07-25T03:34:51;17.70;99.90
9311;DHT22;4694;52.464;13.480;2022-07-25T03:37:18;17.70;99.90
9311;DHT22;4694;52.464;13.480;2022-07-25T03:39:46;17.70;99.90
9311;DHT22;4694;52.464;13.480;2022-07-25T03:42:13;17.70;99.90
9311;DHT22;4694;52.464;13.480;2022-07-25T03:44:42;17.70;99.90
9311;DHT22;4694;52.464;13.480;2022-07-25T03:47:09;17.70;99.90
9311;DHT22;4694;52.464;13.480;2022-07-25T03:49:35;17.80;99.90
9311;DHT22;4694;52.464;13.480;2022-07-25T03:52:03;17.80;99.90
9311;DHT22;4694;52.464;13.480;2022-07-25T03:54:29;17.80;99.90
9311;DHT22;4694;52.464;13.480;2022-07-25T03:57:00;17.80;99.90
9311;DHT22;4694;52.464;13.480;2022-07-25T03:59:26;17.80;99.90
9311;DHT22;4694;52.464;13.480;2022-07-25T04:01:53;17.80;99.90
9311;DHT22;4694;52.464;13.480;2022-07-25T04:04:20;17.80;99.90
9311;DHT22;4694;52.464;13.480;2022-07-25T04:06:47;17.80;99.90
9311;DHT22;4694;52.464;13.480;2022-07-25T04:09:14;17.80;99.90
9311;DHT22;4694;52.464;13.480;2022-07-25T04:11:41;17.90;99.90
9311;DHT22;4694;52.464;13.480;2022-07-25T04:14:09;17.90;99.90
9311;DHT22;4694;52.464;13.480;2022-07-25T04:16:36;17.90;99.90
9311;DHT22;4694;52.464;13.480;2022-07-25T04:19:03;17.90;99.90
9311;DHT22;4694;52.464;13.480;2022-07-25T04:21:30;17.90;99.90
9311;DHT22;4694;52.464;13.480;2022-07-25T04:23:57;17.90;99.90
9311;DHT22;4694;52.464;13.480;2022-07-25T04:26:24;18.00;99.90
9311;DHT22;4694;52.464;13.480;2022-07-25T04:28:50;18.00;99.90
9311;DHT22;4694;52.464;13.480;2022-07-25T04:31:19;18.10;99.90
9311;DHT22;4694;52.464;13.480;2022-07-25T04:33:45;18.10;99.90
9311;DHT22;4694;52.464;13.480;2022-07-25T04:36:12;18.30;99.90
9311;DHT22;4694;52.464;13.480;2022-07-25T04:38:39;18.30;99.90
9311;DHT22;4694;52.464;13.480;2022-07-25T04:41:05;18.40;99.90
9311;DHT22;4694;52.464;13.480;2022-07-25T04:43:32;18.50;99.90
9311;DHT22;4694;52.464;13.480;2022-07-25T04:45:59;18.60;99.90
9311;DHT22;4694;52.464;13.480;2022-07-25T04:48:28;18.80;99.90
9311;DHT22;4694;52.464;13.480;2022-07-25T04:50:54;18.90;99.90
9311;DHT22;4694;52.464;13.480;2022-07-25T04:53:21;19.10;99.90
9311;DHT22;4694;52.464;13.480;2022-07-25T04:55:47;19.20;99.90
9311;DHT22;4694;52.464;13.480;2022-07-25T04:58:14;19.30;99.90
9311;DHT22;4694;52.464;13.480;2022-07-25T05:00:41;19.40;99.90
9311;DHT22;4694;52.464;13.480;2022-07-25T05:03:08;19.40;99.90
9311;DHT22;4694;52.464;13.480;2022-07-25T05:05:36;19.50;99.90
9311;DHT22;4694;52.464;13.480;2022-07-25T05:08:03;19.60;99.90
9311;DHT22;4694;52.464;13.480;2022-07-25T05:10:30;19.70;99.90
9311;DHT22;4694;52.464;13.480;2022-07-25T05:12:57;19.80;99.90
9311;DHT22;4694;52.464;13.480;2022-07-25T05:15:23;19.90;99.90
9311;DHT22;4694;52.464;13.480;2022-07-25T05:17:50;20.00;99.90
9311;DHT22;4694;52.464;13.480;2022-07-25T05:20:17;20.10;99.90
9311;DHT22;4694;52.464;13.480;2022-07-25T05:22:45;20.20;99.90
9311;DHT22;4694;52.464;13.480;2022-07-25T05:25:11;20.50;99.90
9311;DHT22;4694;52.464;13.480;2022-07-25T05:27:39;20.70;99.90
9311;DHT22;4694;52.464;13.480;2022-07-25T05:30:07;20.70;99.90
9311;DHT22;4694;52.464;13.480;2022-07-25T05:32:35;21.00;99.90
9311;DHT22;4694;52.464;13.480;2022-07-25T05:35:03;21.20;99.90
9311;DHT22;4694;52.464;13.480;2022-07-25T05:37:29;21.10;99.90
9311;DHT22;4694;52.464;13.480;2022-07-25T05:39:57;21.20;99.90
9311;DHT22;4694;52.464;13.480;2022-07-25T05:42:24;21.30;99.90
9311;DHT22;4694;52.464;13.480;2022-07-25T05:44:51;21.30;99.90
9311;DHT22;4694;52.464;13.480;2022-07-25T05:47:17;21.40;99.90
9311;DHT22;4694;52.464;13.480;2022-07-25T05:49:44;21.60;99.90
9311;DHT22;4694;52.464;13.480;2022-07-25T05:52:11;21.70;99.90
9311;DHT22;4694;52.464;13.480;2022-07-25T05:54:38;21.90;99.90
9311;DHT22;4694;52.464;13.480;2022-07-25T05:57:06;21.90;99.90
9311;DHT22;4694;52.464;13.480;2022-07-25T05:59:33;21.90;99.90
9311;DHT22;4694;52.464;13.480;2022-07-25T06:02:00;22.40;99.90
9311;DHT22;4694;52.464;13.480;2022-07-25T06:04:27;22.70;99.90
9311;DHT22;4694;52.464;13.480;2022-07-25T06:06:54;23.50;99.90
9311;DHT22;4694;52.464;13.480;2022-07-25T06:09:22;23.90;99.90
9311;DHT22;4694;52.464;13.480;2022-07-25T06:11:49;24.00;99.90
9311;DHT22;4694;52.464;13.480;2022-07-25T06:14:17;24.20;99.90
9311;DHT22;4694;52.464;13.480;2022-07-25T06:16:44;25.00;99.90
9311;DHT22;4694;52.464;13.480;2022-07-25T06:19:10;24.50;99.10
9311;DHT22;4694;52.464;13.480;2022-07-25T06:21:37;24.50;98.60
9311;DHT22;4694;52.464;13.480;2022-07-25T06:24:04;24.80;98.30
9311;DHT22;4694;52.464;13.480;2022-07-25T06:26:31;25.10;98.50
9311;DHT22;4694;52.464;13.480;2022-07-25T06:28:57;25.00;97.80
9311;DHT22;4694;52.464;13.480;2022-07-25T06:31:25;25.10;97.80
9311;DHT22;4694;52.464;13.480;2022-07-25T06:33:52;25.40;97.40
9311;DHT22;4694;52.464;13.480;2022-07-25T06:36:18;25.60;97.10
9311;DHT22;4694;52.464;13.480;2022-07-25T06:38:45;25.60;96.50
9311;DHT22;4694;52.464;13.480;2022-07-25T06:41:15;25.90;96.60
9311;DHT22;4694;52.464;13.480;2022-07-25T06:43:42;26.20;96.10
9311;DHT22;4694;52.464;13.480;2022-07-25T06:46:08;26.20;95.60
9311;DHT22;4694;52.464;13.480;2022-07-25T06:48:37;26.50;95.60
9311;DHT22;4694;52.464;13.480;2022-07-25T06:51:04;26.60;95.00
9311;DHT22;4694;52.464;13.480;2022-07-25T06:53:31;26.90;94.70
9311;DHT22;4694;52.464;13.480;2022-07-25T06:55:58;27.10;94.50
9311;DHT22;4694;52.464;13.480;2022-07-25T06:58:25;27.40;94.00
9311;DHT22;4694;52.464;13.480;2022-07-25T07:00:51;27.60;94.00
9311;DHT22;4694;52.464;13.480;2022-07-25T07:03:18;27.80;93.20
9311;DHT22;4694;52.464;13.480;2022-07-25T07:05:46;28.10;92.80
9311;DHT22;4694;52.464;13.480;2022-07-25T07:08:13;28.30;93.10
9311;DHT22;4694;52.464;13.480;2022-07-25T07:10:39;28.50;92.00
9311;DHT22;4694;52.464;13.480;2022-07-25T07:13:08;28.50;91.50
9311;DHT22;4694;52.464;13.480;2022-07-25T07:15:35;28.70;91.50
9311;DHT22;4694;52.464;13.480;2022-07-25T07:18:03;29.00;91.00
9311;DHT22;4694;52.464;13.480;2022-07-25T07:20:29;28.90;90.30
9311;DHT22;4694;52.464;13.480;2022-07-25T07:22:57;29.40;90.20
9311;DHT22;4694;52.464;13.480;2022-07-25T07:25:24;29.70;89.80
9311;DHT22;4694;52.464;13.480;2022-07-25T07:27:51;30.10;88.10
9311;DHT22;4694;52.464;13.480;2022-07-25T07:30:18;30.10;86.80
9311;DHT22;4694;52.464;13.480;2022-07-25T07:32:45;30.00;86.20
9311;DHT22;4694;52.464;13.480;2022-07-25T07:35:12;30.20;85.30
9311;DHT22;4694;52.464;13.480;2022-07-25T07:37:41;30.50;84.90
9311;DHT22;4694;52.464;13.480;2022-07-25T07:40:11;31.00;84.10
9311;DHT22;4694;52.464;13.480;2022-07-25T07:42:38;31.00;83.60
9311;DHT22;4694;52.464;13.480;2022-07-25T07:45:13;31.50;81.60
9311;DHT22;4694;52.464;13.480;2022-07-25T07:47:52;31.90;81.50
9311;DHT22;4694;52.464;13.480;2022-07-25T07:50:20;31.90;78.70
9311;DHT22;4694;52.464;13.480;2022-07-25T07:52:47;32.50;78.70
9311;DHT22;4694;52.464;13.480;2022-07-25T07:55:17;32.10;76.10
9311;DHT22;4694;52.464;13.480;2022-07-25T07:58:02;32.20;76.70
9311;DHT22;4694;52.464;13.480;2022-07-25T08:00:29;32.80;75.60
9311;DHT22;4694;52.464;13.480;2022-07-25T08:02:57;32.60;75.10
9311;DHT22;4694;52.464;13.480;2022-07-25T08:05:26;33.10;73.40
9311;DHT22;4694;52.464;13.480;2022-07-25T08:07:53;32.70;73.10
9311;DHT22;4694;52.464;13.480;2022-07-25T08:10:24;33.40;73.60
9311;DHT22;4694;52.464;13.480;2022-07-25T08:12:56;33.30;72.70
9311;DHT22;4694;52.464;13.480;2022-07-25T08:15:23;32.80;72.70
9311;DHT22;4694;52.464;13.480;2022-07-25T08:17:51;33.20;72.70
9311;DHT22;4694;52.464;13.480;2022-07-25T08:20:19;33.90;71.50
9311;DHT22;4694;52.464;13.480;2022-07-25T08:22:48;33.90;69.70
9311;DHT22;4694;52.464;13.480;2022-07-25T08:25:16;34.00;69.80
9311;DHT22;4694;52.464;13.480;2022-07-25T08:27:45;33.80;72.10
9311;DHT22;4694;52.464;13.480;2022-07-25T08:30:13;34.50;72.20
9311;DHT22;4694;52.464;13.480;2022-07-25T08:32:49;34.70;70.40
9311;DHT22;4694;52.464;13.480;2022-07-25T08:35:18;34.80;75.90
9311;DHT22;4694;52.464;13.480;2022-07-25T08:37:45;35.10;73.00
9311;DHT22;4694;52.464;13.480;2022-07-25T08:40:14;34.70;75.60
9311;DHT22;4694;52.464;13.480;2022-07-25T08:42:41;34.70;74.30
9311;DHT22;4694;52.464;13.480;2022-07-25T08:45:16;35.40;75.00
9311;DHT22;4694;52.464;13.480;2022-07-25T08:47:44;35.40;69.80
9311;DHT22;4694;52.464;13.480;2022-07-25T17:35:26;27.70;94.50
9311;DHT22;4694;52.464;13.480;2022-07-25T17:37:54;27.10;99.90
9311;DHT22;4694;52.464;13.480;2022-07-25T17:40:21;26.60;99.90
9311;DHT22;4694;52.464;13.480;2022-07-25T17:42:47;26.20;99.90
9311;DHT22;4694;52.464;13.480;2022-07-25T20:07:40;22.40;99.90
9311;DHT22;4694;52.464;13.480;2022-07-25T20:10:07;22.30;99.90
9311;DHT22;4694;52.464;13.480;2022-07-25T20:12:36;22.20;99.90
9311;DHT22;4694;52.464;13.480;2022-07-25T20:15:04;22.20;99.90
9311;DHT22;4694;52.464;13.480;2022-07-25T20:17:30;22.20;99.90
9311;DHT22;4694;52.464;13.480;2022-07-25T20:19:57;22.10;99.90
9311;DHT22;4694;52.464;13.480;2022-07-25T20:22:24;22.10;99.90
9311;DHT22;4694;52.464;13.480;2022-07-25T20:24:51;22.10;99.90
9311;DHT22;4694;52.464;13.480;2022-07-25T20:27:17;22.10;99.90
9311;DHT22;4694;52.464;13.480;2022-07-25T20:29:46;22.10;99.90
9311;DHT22;4694;52.464;13.480;2022-07-25T20:32:12;22.10;99.90
9311;DHT22;4694;52.464;13.480;2022-07-25T20:34:39;22.10;99.90
9311;DHT22;4694;52.464;13.480;2022-07-25T20:37:05;22.20;99.90
9311;DHT22;4694;52.464;13.480;2022-07-25T20:39:32;22.20;99.90
9311;DHT22;4694;52.464;13.480;2022-07-25T20:41:59;22.30;99.90
9311;DHT22;4694;52.464;13.480;2022-07-25T20:44:26;22.40;99.90
9311;DHT22;4694;52.464;13.480;2022-07-25T20:46:54;22.50;99.90
9311;DHT22;4694;52.464;13.480;2022-07-25T20:49:20;22.70;99.90
9311;DHT22;4694;52.464;13.480;2022-07-25T20:51:47;22.90;99.90
9311;DHT22;4694;52.464;13.480;2022-07-25T20:54:14;23.10;99.90
9311;DHT22;4694;52.464;13.480;2022-07-25T20:56:42;23.20;99.90
9311;DHT22;4694;52.464;13.480;2022-07-25T20:59:09;23.30;99.90
9311;DHT22;4694;52.464;13.480;2022-07-25T21:01:36;23.30;99.90
9311;DHT22;4694;52.464;13.480;2022-07-25T21:04:04;23.30;99.90
9311;DHT22;4694;52.464;13.480;2022-07-25T21:06:31;23.30;99.90
9311;DHT22;4694;52.464;13.480;2022-07-25T21:08:58;23.30;99.90
9311;DHT22;4694;52.464;13.480;2022-07-25T21:11:24;23.30;99.90
9311;DHT22;4694;52.464;13.480;2022-07-25T21:13:51;23.20;99.90
9311;DHT22;4694;52.464;13.480;2022-07-25T21:16:17;23.20;99.90
9311;DHT22;4694;52.464;13.480;2022-07-25T21:18:44;23.10;99.90
9311;DHT22;4694;52.464;13.480;2022-07-25T21:21:12;23.10;99.90
9311;DHT22;4694;52.464;13.480;2022-07-25T21:23:39;23.00;99.90
9311;DHT22;4694;52.464;13.480;2022-07-25T21:26:06;23.00;99.90
9311;DHT22;4694;52.464;13.480;2022-07-25T21:28:33;22.90;99.90
9311;DHT22;4694;52.464;13.480;2022-07-25T21:30:59;22.90;99.90
9311;DHT22;4694;52.464;13.480;2022-07-25T21:33:26;22.90;99.90
9311;DHT22;4694;52.464;13.480;2022-07-25T21:35:52;22.90;99.90
9311;DHT22;4694;52.464;13.480;2022-07-25T21:38:21;22.90;99.90
9311;DHT22;4694;52.464;13.480;2022-07-25T21:40:48;22.80;99.90
9311;DHT22;4694;52.464;13.480;2022-07-25T21:43:14;22.70;99.90
9311;DHT22;4694;52.464;13.480;2022-07-25T21:45:41;22.70;99.90
9311;DHT22;4694;52.464;13.480;2022-07-25T21:48:08;22.80;99.90
9311;DHT22;4694;52.464;13.480;2022-07-25T21:50:35;22.80;99.90
9311;DHT22;4694;52.464;13.480;2022-07-25T21:53:04;22.60;99.90
9311;DHT22;4694;52.464;13.480;2022-07-25T21:55:33;22.40;99.90
9311;DHT22;4694;52.464;13.480;2022-07-25T21:58:00;22.20;99.90
9311;DHT22;4694;52.464;13.480;2022-07-25T22:00:28;22.10;99.90
9311;DHT22;4694;52.464;13.480;2022-07-25T22:02:55;22.00;99.90
9311;DHT22;4694;52.464;13.480;2022-07-25T22:05:23;21.80;99.90
9311;DHT22;4694;52.464;13.480;2022-07-25T22:07:50;21.70;99.90
9311;DHT22;4694;52.464;13.480;2022-07-25T22:10:18;21.50;99.90
9311;DHT22;4694;52.464;13.480;2022-07-25T22:12:47;21.40;99.90
9311;DHT22;4694;52.464;13.480;2022-07-25T22:15:14;21.30;99.90
9311;DHT22;4694;52.464;13.480;2022-07-25T22:17:41;21.20;99.90
9311;DHT22;4694;52.464;13.480;2022-07-25T22:20:10;21.20;99.90
9311;DHT22;4694;52.464;13.480;2022-07-25T22:22:36;21.00;99.90
9311;DHT22;4694;52.464;13.480;2022-07-25T22:25:04;21.00;99.90
9311;DHT22;4694;52.464;13.480;2022-07-25T22:27:31;21.00;99.90
9311;DHT22;4694;52.464;13.480;2022-07-25T22:29:59;21.00;99.90
9311;DHT22;4694;52.464;13.480;2022-07-25T22:32:25;20.90;99.90
9311;DHT22;4694;52.464;13.480;2022-07-25T22:34:52;20.90;99.90
9311;DHT22;4694;52.464;13.480;2022-07-25T22:37:18;20.80;99.90
9311;DHT22;4694;52.464;13.480;2022-07-25T22:39:45;20.70;99.90
9311;DHT22;4694;52.464;13.480;2022-07-25T22:42:12;20.80;99.90
9311;DHT22;4694;52.464;13.480;2022-07-25T22:44:38;20.80;99.90
9311;DHT22;4694;52.464;13.480;2022-07-25T22:47:06;20.80;99.90
9311;DHT22;4694;52.464;13.480;2022-07-25T22:49:33;20.80;99.90
9311;DHT22;4694;52.464;13.480;2022-07-25T22:51:59;20.80;99.90
9311;DHT22;4694;52.464;13.480;2022-07-25T22:54:26;20.70;99.90
9311;DHT22;4694;52.464;13.480;2022-07-25T22:56:53;20.70;99.90
9311;DHT22;4694;52.464;13.480;2022-07-25T22:59:19;20.70;99.90
9311;DHT22;4694;52.464;13.480;2022-07-25T23:01:46;20.80;99.90
9311;DHT22;4694;52.464;13.480;2022-07-25T23:04:14;20.80;99.90
9311;DHT22;4694;52.464;13.480;2022-07-25T23:06:41;20.80;99.90
9311;DHT22;4694;52.464;13.480;2022-07-25T23:09:08;20.70;99.90
9311;DHT22;4694;52.464;13.480;2022-07-25T23:11:34;20.70;99.90
9311;DHT22;4694;52.464;13.480;2022-07-25T23:14:01;20.80;99.90
9311;DHT22;4694;52.464;13.480;2022-07-25T23:16:28;20.70;99.90
9311;DHT22;4694;52.464;13.480;2022-07-25T23:18:54;20.60;99.90
9311;DHT22;4694;52.464;13.480;2022-07-25T23:21:23;20.60;99.90
9311;DHT22;4694;52.464;13.480;2022-07-25T23:23:50;20.40;99.90
9311;DHT22;4694;52.464;13.480;2022-07-25T23:26:19;20.40;99.90
9311;DHT22;4694;52.464;13.480;2022-07-25T23:28:46;20.20;99.90
9311;DHT22;4694;52.464;13.480;2022-07-25T23:31:12;20.20;99.90
9311;DHT22;4694;52.464;13.480;2022-07-25T23:33:39;20.10;99.90
9311;DHT22;4694;52.464;13.480;2022-07-25T23:36:06;20.20;99.90
9311;DHT22;4694;52.464;13.480;2022-07-25T23:38:35;20.20;99.90
9311;DHT22;4694;52.464;13.480;2022-07-25T23:41:03;20.10;99.90
9311;DHT22;4694;52.464;13.480;2022-07-25T23:43:29;20.10;99.90
9311;DHT22;4694;52.464;13.480;2022-07-25T23:45:56;20.10;99.90
9311;DHT22;4694;52.464;13.480;2022-07-25T23:48:23;20.00;99.90
9311;DHT22;4694;52.464;13.480;2022-07-25T23:50:49;19.90;99.90
9311;DHT22;4694;52.464;13.480;2022-07-25T23:53:16;19.90;99.90
9311;DHT22;4694;52.464;13.480;2022-07-25T23:55:44;19.90;99.90
9311;DHT22;4694;52.464;13.480;2022-07-25T23:58:10;19.90;99.90
